This is the latest recevied weather packets stored in our database for station/object WA1TYB-13. If no packets are shown the sender has not sent any weather packets the latest 1 day(s).
| Time | Temp. | Humidity | Pressure | Rain* | Wind** | Luminosity | Snow |
|---|---|---|---|---|---|---|---|
| 1836274594 | 16.67° C | 58% | 1017.5 hPa | 0 mm | 0 m/s | 0 W/m² | - |
| 1836274447 | 15.56° C | 60% | 1017.5 hPa | 0 mm | 0.89 m/s, 156° | 0 W/m² | - |
| 1836274292 | 17.22° C | 56% | 1017.2 hPa | 0 mm | 0.89 m/s, 206° | 0 W/m² | - |
| 1836274145 | 16.11° C | 59% | 1017.5 hPa | 0 mm | 0 m/s | 0 W/m² | - |
| 1836273991 | 17.22° C | 57% | 1017.5 hPa | 0 mm | 0.89 m/s, 176° | 0 W/m² | - |
| 1778054449 | -2.22° C | 74% | 1021.6 hPa | 0 mm | 0 m/s | 0 W/m² | - |
| 1778054147 | -2.22° C | 73% | 1021.7 hPa | 0 mm | 0 m/s | 0 W/m² | - |
| 1778053843 | -1.67° C | 72% | 1021.6 hPa | 0 mm | 0 m/s | 0 W/m² | - |
| 1778053541 | -1.11° C | 71% | 1021.8 hPa | 0 mm | 0 m/s | 0 W/m² | - |
| 1778053238 | -1.11° C | 71% | 1021.6 hPa | 0 mm | 0.45 m/s, 306° | 0 W/m² | - |
| 1778052936 | -1.11° C | 72% | 1021.7 hPa | 0 mm | 0.45 m/s, 344° | 0 W/m² | - |
| 1778052633 | -1.67° C | 72% | 1021.8 hPa | 0 mm | 0.89 m/s, 322° | 0 W/m² | - |
| 1778052330 | -1.11° C | 71% | 1021.7 hPa | 0 mm | 0 m/s | 0 W/m² | - |
| 1778052028 | -1.11° C | 71% | 1022 hPa | 0 mm | 0.45 m/s, 293° | 0 W/m² | - |
| 1778051726 | -1.11° C | 70% | 1021.7 hPa | 0 mm | 0.45 m/s, 315° | 0 W/m² | - |
| 1778051422 | -0.56° C | 71% | 1022 hPa | 0 mm | 0.45 m/s, 317° | 0 W/m² | - |
| 1778051120 | -1.11° C | 71% | 1022 hPa | 0 mm | 0.45 m/s, 315° | 0 W/m² | - |
| 1778050817 | -0.56° C | 70% | 1022.1 hPa | 0 mm | 0 m/s | 0 W/m² | - |
| 1778050515 | -0.56° C | 69% | 1022.1 hPa | 0 mm | 0.45 m/s, 177° | 0 W/m² | - |
| 1778050211 | 0° C | 68% | 1021.7 hPa | 0 mm | 0 m/s | 0 W/m² | - |
| 1778049908 | 0° C | 68% | 1021.7 hPa | 0 mm | 0.89 m/s, 307° | 0 W/m² | - |
| 1778049603 | 0° C | 70% | 1021.8 hPa | 0 mm | 1.79 m/s, 297° | 0 W/m² | - |
| 1778049302 | -0.56° C | 71% | 1022 hPa | 0 mm | 1.34 m/s, 338° | 0 W/m² | - |
| 1778048999 | -0.56° C | 70% | 1021.6 hPa | 0 mm | 0 m/s | 0 W/m² | - |
| 1778048697 | -0.56° C | 70% | 1021.7 hPa | 0 mm | 0.89 m/s, 168° | 0 W/m² | - |
* Rain latest hour (hover to see other rain measurements)
** Current wind speed in m/s (hover to see current wind gust speed)